Time;durP1;ratioP1;P1;durP2;ratioP2;P2;SDS_P1;SDS_P2;PMS_P1;PMS_P2;Temp;Humidity;BMP_temperature;BMP_pressure;BME280_temperature;BME280_humidity;BME280_pressure;Samples;Min_cycle;Max_cycle;Signal;HPM_P1;HPM_P2
2022/11/01 05:22:33;;;;;;;6.85;4.13;;;;;;;12.49;100.00;100279.91;5088929;28;20335;-68
2022/11/01 05:24:59;;;;;;;10.20;5.10;;;;;;;12.55;100.00;100265.00;5088963;28;20055;-68
2022/11/01 05:27:24;;;;;;;8.68;5.63;;;;;;;12.58;100.00;100258.44;5088813;28;20601;-69
2022/11/01 05:29:49;;;;;;;7.70;5.35;;;;;;;12.59;100.00;100285.00;5088635;28;20036;-69
2022/11/01 05:32:16;;;;;;;8.75;5.05;;;;;;;12.60;100.00;100291.19;5088934;28;20059;-69
2022/11/01 05:34:41;;;;;;;7.70;5.10;;;;;;;12.59;100.00;100293.03;5088832;28;20389;-69
2022/11/01 05:37:07;;;;;;;10.57;4.97;;;;;;;12.62;100.00;100297.16;5089089;28;20037;-67
2022/11/01 05:39:32;;;;;;;10.82;4.93;;;;;;;12.65;100.00;100296.75;5087402;28;20036;-67
2022/11/01 05:41:57;;;;;;;5.82;4.05;;;;;;;12.66;100.00;100299.28;5088300;28;20040;-68
2022/11/01 05:44:23;;;;;;;5.13;3.78;;;;;;;12.69;100.00;100298.88;5088570;28;20109;-68
2022/11/01 05:46:48;;;;;;;5.95;3.47;;;;;;;12.74;100.00;100298.34;5087213;28;20029;-68
2022/11/01 05:49:14;;;;;;;5.93;3.30;;;;;;;12.81;100.00;100291.22;5088488;28;20741;-67
2022/11/01 05:51:39;;;;;;;4.22;3.33;;;;;;;12.84;100.00;100298.03;5086861;28;20040;-68
2022/11/01 05:54:04;;;;;;;6.15;2.92;;;;;;;12.88;100.00;100302.00;5088454;28;20063;-68
2022/11/01 05:56:30;;;;;;;4.15;2.40;;;;;;;12.90;100.00;100303.47;5087085;28;20040;-67
2022/11/01 05:58:55;;;;;;;4.25;3.03;;;;;;;12.95;100.00;100306.41;5088241;28;20032;-67
2022/11/01 06:01:20;;;;;;;4.93;2.40;;;;;;;13.01;100.00;100319.03;5086614;28;20044;-68
2022/11/01 06:03:49;;;;;;;5.55;2.55;;;;;;;13.06;100.00;100318.50;5088294;28;20072;-66
2022/11/01 06:06:14;;;;;;;5.82;2.58;;;;;;;13.09;100.00;100317.28;5088170;28;20052;-66
2022/11/01 06:08:39;;;;;;;4.75;2.65;;;;;;;13.08;100.00;100316.44;5088205;28;20464;-67
2022/11/01 06:11:05;;;;;;;6.05;2.22;;;;;;;13.13;100.00;100315.88;5087787;28;20115;-67
2022/11/01 06:13:32;;;;;;;3.88;2.45;;;;;;;13.17;100.00;100318.00;5087984;28;20028;-67
2022/11/01 06:16:02;;;;;;;2.22;1.65;;;;;;;13.21;100.00;100330.00;5086685;28;20029;-68
2022/11/01 06:18:27;;;;;;;4.13;1.70;;;;;;;13.27;100.00;100323.06;5086649;28;20048;-68
2022/11/01 06:20:53;;;;;;;2.95;2.03;;;;;;;13.33;100.00;100332.19;5087485;28;20032;-67
2022/11/01 06:23:19;;;;;;;2.13;1.63;;;;;;;13.41;100.00;100335.56;5087907;28;20119;-67
2022/11/01 06:25:44;;;;;;;3.08;1.45;;;;;;;13.47;100.00;100342.03;5086462;28;20115;-66
2022/11/01 06:28:09;;;;;;;2.20;1.40;;;;;;;13.52;100.00;100344.97;5087784;28;20044;-67
2022/11/01 06:30:37;;;;;;;2.22;1.30;;;;;;;13.61;100.00;100351.00;5086136;28;20414;-67
2022/11/01 06:33:03;;;;;;;;;;;;;;;13.69;100.00;100358.91;5079531;28;20123;-67
2022/11/01 06:35:28;;;;;;;3.67;1.77;;;;;;;13.69;100.00;100359.75;5074168;28;19920;-67
2022/11/01 06:37:54;;;;;;;2.17;1.35;;;;;;;13.74;100.00;100362.69;5074209;28;20059;-68
2022/11/01 06:40:19;;;;;;;4.55;2.15;;;;;;;13.79;100.00;100372.81;5073781;28;20040;-67
2022/11/01 06:42:45;;;;;;;3.45;1.02;;;;;;;13.83;100.00;100382.97;5073852;28;20154;-61
2022/11/01 06:45:10;;;;;;;1.90;1.13;;;;;;;13.88;100.00;100386.91;5073870;28;20041;-61
2022/11/01 06:47:36;;;;;;;2.33;1.27;;;;;;;13.93;100.00;100393.34;5073900;28;20098;-60
2022/11/01 06:50:02;;;;;;;1.67;1.10;;;;;;;13.97;100.00;100401.84;5073887;28;20123;-60
2022/11/01 06:52:28;;;;;;;2.17;1.23;;;;;;;14.00;100.00;100404.13;5072667;28;20072;-61
2022/11/01 06:54:53;;;;;;;3.30;1.83;;;;;;;14.03;100.00;100406.44;5055897;28;20107;-62
2022/11/01 06:57:18;;;;;;;1.95;1.30;;;;;;;14.08;100.00;100409.34;5069286;28;20115;-62
2022/11/01 06:59:44;;;;;;;4.97;1.20;;;;;;;14.15;100.00;100420.97;5072318;28;20109;-62
2022/11/01 07:02:09;;;;;;;1.35;0.70;;;;;;;14.21;100.00;100420.16;5072696;28;20036;-62
2022/11/01 07:04:35;;;;;;;1.45;0.90;;;;;;;14.26;100.00;100422.28;5073861;28;20037;-60
2022/11/01 07:07:01;;;;;;;2.65;0.98;;;;;;;14.34;100.00;100436.41;5073516;28;20063;-62
2022/11/01 07:09:27;;;;;;;1.80;0.80;;;;;;;14.34;100.00;100431.03;5073581;28;20040;-58
2022/11/01 07:11:52;;;;;;;1.95;0.70;;;;;;;14.40;100.00;100432.09;5072465;28;20048;-55
2022/11/01 07:14:17;;;;;;;0.85;0.68;;;;;;;14.44;100.00;100433.38;5072257;28;20120;-60
2022/11/01 07:16:43;;;;;;;1.05;0.75;;;;;;;14.47;100.00;100441.03;5073202;28;20078;-62
2022/11/01 07:19:08;;;;;;;0.60;0.60;;;;;;;14.50;100.00;100445.19;5073177;28;20405;-61
2022/11/01 07:21:34;;;;;;;0.98;0.70;;;;;;;14.55;100.00;100457.00;5072220;28;20032;-61
2022/11/01 07:23:59;;;;;;;0.45;0.40;;;;;;;14.54;100.00;100455.34;5073316;28;20123;-62
2022/11/01 07:26:25;;;;;;;1.38;0.93;;;;;;;14.57;100.00;100454.13;5073022;28;20120;-62
2022/11/01 07:28:50;;;;;;;0.90;0.65;;;;;;;14.60;100.00;100459.91;5071599;28;20434;-60
2022/11/01 07:31:15;;;;;;;1.05;0.70;;;;;;;14.66;100.00;100456.44;5072405;28;20047;-61
2022/11/01 07:33:41;;;;;;;1.60;0.50;;;;;;;14.71;100.00;100457.72;5073109;28;20500;-61
2022/11/01 07:36:07;;;;;;;0.52;0.52;;;;;;;14.73;100.00;100458.34;5072668;28;20453;-62
2022/11/01 07:38:32;;;;;;;1.85;0.80;;;;;;;14.78;100.00;100467.47;5073033;28;20052;-62
2022/11/01 07:40:58;;;;;;;0.85;0.60;;;;;;;14.79;100.00;100458.41;5071983;28;20394;-61
2022/11/01 07:43:23;;;;;;;2.30;0.85;;;;;;;14.89;100.00;100458.91;5072660;28;20036;-60
2022/11/01 07:45:49;;;;;;;1.83;0.98;;;;;;;14.90;100.00;100457.88;5071904;28;20042;-60
2022/11/01 07:48:16;;;;;;;0.70;0.55;;;;;;;14.92;100.00;100468.38;5072707;28;20040;-61
2022/11/01 07:50:43;;;;;;;0.40;0.40;;;;;;;14.99;100.00;100466.59;5071925;28;20024;-61
2022/11/01 07:53:14;;;;;;;1.00;0.60;;;;;;;15.02;100.00;100478.78;5072675;28;20078;-61
2022/11/01 07:55:40;;;;;;;1.23;1.00;;;;;;;15.03;100.00;100481.28;5072097;28;20462;-61
2022/11/01 07:58:07;;;;;;;1.08;0.85;;;;;;;15.10;100.00;100476.78;5072608;28;20128;-61
2022/11/01 08:00:33;;;;;;;3.00;0.63;;;;;;;15.14;100.00;100486.09;5071674;28;20037;-61
2022/11/01 08:03:03;;;;;;;1.23;0.60;;;;;;;15.14;100.00;100494.16;5072386;28;20490;-61
2022/11/01 08:05:30;;;;;;;0.38;0.38;;;;;;;15.17;100.00;100487.53;5072154;28;20040;-61
2022/11/01 08:07:56;;;;;;;2.28;0.73;;;;;;;15.25;100.00;100494.59;5072370;28;20028;-61
2022/11/01 08:10:21;;;;;;;0.30;0.30;;;;;;;15.27;100.00;100492.56;5071678;28;20448;-61
2022/11/01 08:12:47;;;;;;;1.20;0.50;;;;;;;15.31;100.00;100491.13;5072342;28;20032;-61
2022/11/01 08:15:12;;;;;;;0.40;0.30;;;;;;;15.31;100.00;100497.31;5071862;28;20040;-61
2022/11/01 08:17:38;;;;;;;0.93;0.68;;;;;;;15.38;100.00;100500.03;5070866;28;20047;-59
2022/11/01 08:20:04;;;;;;;0.98;0.60;;;;;;;15.42;100.00;100502.13;5071713;28;20135;-60
2022/11/01 08:22:29;;;;;;;0.70;0.60;;;;;;;15.46;100.00;100505.28;5071163;28;20064;-60
2022/11/01 08:24:55;;;;;;;0.40;0.40;;;;;;;15.52;100.00;100503.63;5071933;28;20052;-61
2022/11/01 08:27:20;;;;;;;0.93;0.47;;;;;;;15.57;100.00;100503.84;5070533;28;20043;-61
2022/11/01 08:29:46;;;;;;;0.93;0.68;;;;;;;15.59;100.00;100497.28;5071788;28;20097;-61
2022/11/01 08:32:11;;;;;;;2.88;0.50;;;;;;;15.70;100.00;100496.72;5071046;28;20119;-58
2022/11/01 08:34:37;;;;;;;0.40;0.40;;;;;;;15.72;100.00;100507.28;5071999;28;20048;-61
2022/11/01 08:37:02;;;;;;;0.45;0.40;;;;;;;15.71;100.00;100510.97;5071633;28;20039;-61
2022/11/01 08:39:28;;;;;;;0.55;0.40;;;;;;;15.78;100.00;100509.16;5071451;28;20489;-61
2022/11/01 08:41:53;;;;;;;1.02;0.47;;;;;;;15.78;100.00;100506.47;5070680;28;20041;-61
2022/11/01 08:44:19;;;;;;;0.73;0.68;;;;;;;15.82;100.00;100506.88;5071729;28;20041;-61
2022/11/01 08:46:45;;;;;;;0.32;0.32;;;;;;;15.88;100.00;100495.34;5071225;28;20432;-61
2022/11/01 08:49:14;;;;;;;0.50;0.50;;;;;;;15.88;100.00;100501.53;5071749;28;20055;-63
2022/11/01 08:51:39;;;;;;;0.70;0.52;;;;;;;15.94;100.00;100508.78;5070801;28;20037;-61
2022/11/01 08:54:06;;;;;;;2.42;0.60;;;;;;;16.00;100.00;100512.53;5071517;28;20036;-61
2022/11/01 08:56:32;;;;;;;0.90;0.57;;;;;;;16.00;100.00;100507.16;5071098;28;20039;-58
2022/11/01 08:58:57;;;;;;;1.05;0.60;;;;;;;16.07;100.00;100510.69;5071496;28;20045;-61
2022/11/01 09:01:25;;;;;;;0.82;0.63;;;;;;;16.14;100.00;100516.09;5070473;28;20040;-61
2022/11/01 09:03:57;;;;;;;;;;;;;;;16.18;100.00;100522.72;5071956;28;20404;-60
2022/11/01 09:06:24;;;;;;;1.67;0.60;;;;;;;16.22;100.00;100522.09;5071213;28;20019;-60
2022/11/01 09:08:52;;;;;;;1.27;0.73;;;;;;;16.28;100.00;100521.28;5071111;28;20063;-60
2022/11/01 09:11:19;;;;;;;0.73;0.55;;;;;;;16.28;100.00;100523.97;5070704;28;20400;-61
2022/11/01 09:13:44;;;;;;;1.05;0.95;;;;;;;16.37;100.00;100519.25;5071530;28;20036;-61
2022/11/01 09:16:10;;;;;;;1.33;0.75;;;;;;;16.49;100.00;100522.97;5071394;28;20040;-60
2022/11/01 09:18:35;;;;;;;1.15;0.80;;;;;;;16.57;100.00;100526.50;5071433;28;20079;-61
2022/11/01 09:21:01;;;;;;;0.40;0.40;;;;;;;16.61;100.00;100527.75;5070812;28;20086;-61
2022/11/01 09:23:26;;;;;;;1.25;0.60;;;;;;;16.74;100.00;100533.16;5071312;28;20062;-61
2022/11/01 09:25:52;;;;;;;1.02;0.60;;;;;;;16.81;100.00;100529.44;5071287;28;20044;-59
2022/11/01 09:28:18;;;;;;;1.45;0.80;;;;;;;16.94;100.00;100538.53;5071364;28;20082;-60
2022/11/01 09:30:44;;;;;;;2.42;0.70;;;;;;;16.98;100.00;100545.16;5070992;28;20037;-61
2022/11/01 09:33:09;;;;;;;0.68;0.68;;;;;;;17.05;100.00;100546.00;5069614;28;20076;-53
2022/11/01 09:35:35;;;;;;;0.98;0.50;;;;;;;17.15;100.00;100549.09;5068929;28;20075;-55
2022/11/01 09:38:02;;;;;;;1.45;0.70;;;;;;;17.16;99.81;100544.53;5069778;28;20097;-48
2022/11/01 09:40:31;;;;;;;;;;;;;;;17.21;99.73;100560.88;5071264;28;20123;-58
2022/11/01 09:42:58;;;;;;;0.80;0.52;;;;;;;17.28;99.75;100551.78;5071313;28;20380;-56
2022/11/01 09:45:28;;;;;;;1.38;0.68;;;;;;;17.26;99.58;100553.00;5070955;28;20044;-50
2022/11/01 09:47:55;;;;;;;1.85;0.60;;;;;;;17.28;100.00;100546.38;5071021;28;20037;-54
2022/11/01 09:50:32;;;;;;;0.90;0.57;;;;;;;17.34;98.53;100550.06;5070819;28;20036;-49
2022/11/01 09:52:59;;;;;;;0.57;0.47;;;;;;;17.53;97.95;100543.81;5070695;28;20024;-48
2022/11/01 09:55:40;;;;;;;0.90;0.70;;;;;;;17.45;98.39;100551.31;5070702;28;20044;-50
2022/11/01 09:58:23;;;;;;;1.08;0.80;;;;;;;17.31;96.99;100572.03;5070705;28;20056;-55
2022/11/01 10:01:18;;;;;;;0.80;0.60;;;;;;;17.03;92.14;100566.91;5070574;28;20092;-52
2022/11/01 10:04:21;;;;;;;1.40;0.68;;;;;;;16.64;90.40;100575.75;5059882;28;20051;-52
2022/11/01 10:07:08;;;;;;;0.43;0.43;;;;;;;16.55;91.70;100592.06;5070878;28;20068;-61
2022/11/01 10:09:50;;;;;;;0.75;0.70;;;;;;;16.34;91.07;100597.59;5074676;28;20079;-61
2022/11/01 10:12:39;;;;;;;2.08;0.63;;;;;;;16.25;91.25;100601.50;5074293;28;20059;-61
2022/11/01 10:15:40;;;;;;;0.63;0.50;;;;;;;16.38;90.73;100600.72;5074518;28;20515;-61
2022/11/01 10:18:14;;;;;;;0.98;0.50;;;;;;;16.53;90.55;100594.13;5032183;28;20096;-61
2022/11/01 10:20:40;;;;;;;1.65;0.80;;;;;;;16.84;87.78;100595.47;5067517;28;20055;-61
2022/11/01 10:23:07;;;;;;;0.93;0.50;;;;;;;17.25;87.52;100599.81;5074249;28;20115;-61
2022/11/01 10:25:36;;;;;;;0.68;0.55;;;;;;;17.80;81.73;100603.03;5074243;28;20040;-58
2022/11/01 10:28:17;;;;;;;2.05;0.80;;;;;;;18.17;78.10;100598.75;5074414;28;20482;-61
2022/11/01 10:30:47;;;;;;;3.10;0.68;;;;;;;18.50;76.24;100614.75;5073996;28;20036;-61
2022/11/01 10:33:24;;;;;;;0.55;0.50;;;;;;;18.40;76.48;100606.34;5074114;28;20040;-60
2022/11/01 10:35:55;;;;;;;3.03;0.93;;;;;;;18.10;75.31;100609.56;5074170;28;20028;-61
2022/11/01 10:38:38;;;;;;;1.52;0.77;;;;;;;17.69;78.05;100619.84;5074100;28;20032;-61
2022/11/01 10:41:24;;;;;;;0.50;0.50;;;;;;;17.70;78.60;100611.53;5073738;28;20402;-61
2022/11/01 10:43:56;;;;;;;1.85;0.50;;;;;;;17.68;78.95;100618.19;5074133;28;20128;-60
2022/11/01 10:46:26;;;;;;;1.95;0.70;;;;;;;17.72;76.80;100616.75;5073844;28;20044;-62
2022/11/01 10:49:05;;;;;;;2.35;0.52;;;;;;;17.95;76.26;100625.19;5074244;28;20051;-62
2022/11/01 10:51:33;;;;;;;0.88;0.43;;;;;;;17.90;78.31;100625.81;5073560;28;20477;-62
2022/11/01 10:54:04;;;;;;;0.43;0.43;;;;;;;17.66;78.45;100631.00;5074096;28;20072;-61
2022/11/01 10:56:40;;;;;;;3.40;0.95;;;;;;;17.37;77.58;100627.75;5073954;28;20043;-61
2022/11/01 10:59:33;;;;;;;0.90;0.40;;;;;;;17.12;79.33;100626.72;5073790;28;20040;-61
2022/11/01 11:02:01;;;;;;;1.52;0.40;;;;;;;17.05;80.79;100624.84;5073499;28;20035;-62
2022/11/01 11:04:27;;;;;;;2.63;1.13;;;;;;;17.33;79.21;100610.34;5073744;28;20028;-61
2022/11/01 11:06:53;;;;;;;2.10;0.73;;;;;;;17.44;77.20;100617.81;5073688;28;20032;-61
2022/11/01 11:09:28;;;;;;;1.77;0.50;;;;;;;17.39;76.63;100622.16;5073787;28;20446;-62
2022/11/01 11:12:13;;;;;;;1.08;0.60;;;;;;;17.38;78.05;100624.03;5073572;28;20050;-61
2022/11/01 11:14:41;;;;;;;0.77;0.65;;;;;;;17.40;74.78;100624.63;5073603;28;20067;-61
2022/11/01 11:17:24;;;;;;;2.83;0.68;;;;;;;17.55;75.40;100640.59;5073507;28;20647;-61
2022/11/01 11:19:53;;;;;;;0.35;0.35;;;;;;;17.59;72.88;100634.53;5073437;28;20036;-61
2022/11/01 11:22:22;;;;;;;1.05;0.43;;;;;;;17.63;73.10;100638.50;5073197;28;20048;-62
2022/11/01 11:24:49;;;;;;;0.60;0.43;;;;;;;17.73;74.33;100634.56;5073401;28;20047;-62
2022/11/01 11:27:24;;;;;;;0.90;0.43;;;;;;;18.66;73.50;100635.88;5073298;28;20420;-58
2022/11/01 11:29:54;;;;;;;2.90;0.80;;;;;;;18.98;70.98;100634.00;5073285;28;20817;-55
2022/11/01 11:32:22;;;;;;;0.60;0.43;;;;;;;19.09;69.63;100624.34;5072992;28;20090;-57
2022/11/01 11:38:04;;;;;;;0.63;0.40;;;;;;;18.79;66.41;100615.25;5031088;28;20414;-65
2022/11/01 11:40:41;;;;;;;2.35;1.30;;;;;;;18.55;67.36;100620.34;5032976;28;20387;-65
2022/11/01 11:43:32;;;;;;;2.28;0.40;;;;;;;18.49;69.26;100625.78;5033302;28;20044;-65
2022/11/01 11:46:24;;;;;;;0.52;0.35;;;;;;;18.42;69.71;100617.72;5033174;28;20049;-65
2022/11/01 11:48:52;;;;;;;0.77;0.75;;;;;;;18.16;68.52;100629.47;5032860;28;20049;-65
2022/11/01 11:51:20;;;;;;;0.73;0.52;;;;;;;17.85;69.07;100628.31;5032656;28;20049;-65
2022/11/01 11:54:10;;;;;;;1.02;0.70;;;;;;;17.81;68.95;100631.66;5033026;28;20025;-65
2022/11/01 11:56:35;;;;;;;2.92;0.60;;;;;;;17.82;69.88;100622.53;5032811;28;20035;-65
2022/11/01 11:59:05;;;;;;;0.60;0.40;;;;;;;17.87;69.37;100630.81;5032894;28;20037;-65
2022/11/01 12:01:32;;;;;;;1.00;0.73;;;;;;;17.71;68.81;100625.84;5032665;28;20041;-65
2022/11/01 12:04:06;;;;;;;4.13;0.77;;;;;;;17.72;68.69;100622.13;5033008;28;20052;-65
2022/11/01 12:06:37;;;;;;;3.25;0.60;;;;;;;17.77;66.90;100630.41;5032444;28;20037;-65
2022/11/01 12:09:03;;;;;;;4.03;0.57;;;;;;;17.78;68.77;100624.81;5032754;28;20083;-65
2022/11/01 12:11:44;;;;;;;2.22;0.60;;;;;;;17.75;67.99;100636.03;5032355;28;20437;-64
2022/11/01 12:14:27;;;;;;;1.30;0.70;;;;;;;17.52;67.25;100639.13;5032704;28;20041;-65
2022/11/01 12:16:53;;;;;;;0.57;0.38;;;;;;;17.48;68.07;100635.22;5032556;28;20038;-65
2022/11/01 12:19:26;;;;;;;2.85;0.70;;;;;;;17.30;70.66;100626.94;5032328;28;20068;-65
2022/11/01 12:21:52;;;;;;;2.15;0.60;;;;;;;17.31;70.16;100624.03;5032234;28;20077;-65
2022/11/01 12:24:37;;;;;;;3.78;0.63;;;;;;;17.24;68.49;100627.75;5031294;28;20045;-65
2022/11/01 12:27:05;;;;;;;0.40;0.40;;;;;;;17.12;68.15;100632.09;5031203;28;20069;-65
2022/11/01 12:29:37;;;;;;;1.70;0.77;;;;;;;16.98;69.69;100634.78;5030969;28;20102;-65
2022/11/01 12:32:13;;;;;;;2.15;0.65;;;;;;;16.95;69.76;100629.84;5031655;28;20037;-65
2022/11/01 12:34:41;;;;;;;1.45;0.40;;;;;;;16.92;69.75;100632.91;5032355;28;20402;-65
2022/11/01 12:37:16;;;;;;;2.35;0.70;;;;;;;16.91;70.98;100633.97;5032135;28;20037;-66
2022/11/01 12:39:49;;;;;;;3.63;0.88;;;;;;;16.74;69.92;100630.00;5032397;28;20147;-65
2022/11/01 12:42:31;;;;;;;0.77;0.77;;;;;;;16.62;71.48;100632.41;5031875;28;20423;-64
2022/11/01 12:45:14;;;;;;;0.93;0.57;;;;;;;16.74;70.07;100624.59;5032270;28;20037;-64
2022/11/01 12:47:45;;;;;;;2.72;0.95;;;;;;;16.82;70.83;100627.09;5032188;28;20029;-65
2022/11/01 12:50:22;;;;;;;1.15;0.70;;;;;;;16.77;70.36;100621.53;5031870;28;20059;-65
2022/11/01 12:52:54;;;;;;;2.80;0.77;;;;;;;16.88;70.84;100631.66;5032123;28;20120;-65
2022/11/01 12:55:32;;;;;;;2.00;0.50;;;;;;;16.96;70.91;100634.19;5031964;28;20044;-65
2022/11/01 12:57:57;;;;;;;;;;;;;;;16.97;71.77;100630.44;5032506;28;20037;-65
2022/11/01 13:00:30;;;;;;;4.72;1.20;;;;;;;16.89;70.47;100630.66;5031619;28;19920;-65
2022/11/01 13:03:18;;;;;;;3.38;0.40;;;;;;;16.87;69.90;100618.41;5031904;28;20556;-65
2022/11/01 13:06:11;;;;;;;3.08;0.52;;;;;;;16.84;73.82;100632.28;5031873;28;20175;-65
2022/11/01 13:08:45;;;;;;;2.20;0.70;;;;;;;17.06;71.53;100618.44;5031846;28;20041;-65
2022/11/01 13:11:23;;;;;;;1.00;0.55;;;;;;;17.32;72.00;100611.38;5031436;28;20040;-65
2022/11/01 13:14:01;;;;;;;;;;;;;;;17.49;70.99;100615.31;5032401;28;20034;-65
2022/11/01 13:16:31;;;;;;;0.85;0.50;;;;;;;17.61;69.02;100615.50;5031959;28;20527;-65
2022/11/01 13:19:20;;;;;;;2.60;0.40;;;;;;;17.44;68.51;100627.75;5031887;28;20541;-65
2022/11/01 13:22:12;;;;;;;0.73;0.65;;;;;;;17.28;70.23;100621.75;5031376;28;20030;-66
2022/11/01 13:25:04;;;;;;;2.28;0.60;;;;;;;17.23;69.49;100623.41;5030398;28;20551;-65
2022/11/01 13:27:43;;;;;;;0.45;0.43;;;;;;;17.14;71.69;100621.94;5031570;28;20030;-65
2022/11/01 13:30:13;;;;;;;1.58;0.70;;;;;;;17.15;71.56;100621.78;5031657;28;20667;-65
2022/11/01 13:32:46;;;;;;;1.83;0.60;;;;;;;17.18;72.07;100615.13;5031517;28;20697;-65
2022/11/01 13:35:23;;;;;;;1.70;0.63;;;;;;;17.13;71.57;100612.22;5031602;28;20080;-65
2022/11/01 13:38:02;;;;;;;2.03;1.00;;;;;;;17.14;71.08;100608.50;5031654;28;20029;-64
2022/11/01 13:40:37;;;;;;;1.08;0.77;;;;;;;17.10;70.60;100610.78;5031206;28;20041;-65
2022/11/01 13:43:14;;;;;;;4.55;1.25;;;;;;;17.15;69.54;100602.94;5033170;28;20048;-65
2022/11/01 13:45:57;;;;;;;;;;;;;;;17.12;70.71;100605.19;5035886;28;20029;-65
2022/11/01 13:48:52;;;;;;;2.88;1.27;;;;;;;17.11;70.64;100607.06;5035413;28;19913;-63
2022/11/01 13:51:35;;;;;;;3.38;0.88;;;;;;;17.08;71.00;100611.00;5035039;28;20033;-64
2022/11/01 13:54:08;;;;;;;3.90;0.90;;;;;;;17.08;71.77;100610.16;5035451;28;20052;-64
2022/11/01 13:56:41;;;;;;;2.42;1.10;;;;;;;17.14;72.54;100613.88;5035217;28;20092;-65
2022/11/01 13:59:27;;;;;;;0.98;0.65;;;;;;;17.20;70.22;100623.81;5035287;28;20036;-65
2022/11/01 14:01:52;;;;;;;2.85;1.00;;;;;;;17.07;72.22;100613.88;5034866;28;20095;-64
2022/11/01 14:04:20;;;;;;;1.55;0.57;;;;;;;17.20;70.40;100613.03;5035097;28;20167;-65
2022/11/01 14:07:03;;;;;;;4.53;0.85;;;;;;;17.24;69.12;100608.91;5035093;28;20045;-65
2022/11/01 14:09:30;;;;;;;1.65;0.75;;;;;;;17.25;68.70;100611.41;5034909;28;20080;-65
2022/11/01 14:12:05;;;;;;;3.28;0.90;;;;;;;17.28;69.94;100608.31;5034571;28;20041;-65
2022/11/01 14:14:30;;;;;;;2.80;1.15;;;;;;;17.36;70.80;100612.63;5034981;28;20494;-65
2022/11/01 14:17:14;;;;;;;4.93;1.02;;;;;;;17.44;70.68;100612.41;5033651;28;20072;-65
2022/11/01 14:19:41;;;;;;;3.17;0.93;;;;;;;17.42;68.78;100609.13;5034819;28;20124;-65
2022/11/01 14:22:23;;;;;;;6.40;1.25;;;;;;;17.39;67.80;100612.22;5034448;28;20486;-64
2022/11/01 14:24:56;;;;;;;5.45;0.80;;;;;;;17.33;68.09;100615.72;5034693;28;20070;-65
2022/11/01 14:27:35;;;;;;;1.50;0.90;;;;;;;17.26;68.05;100612.22;5034647;28;20052;-65
2022/11/01 14:30:13;;;;;;;1.48;0.98;;;;;;;17.17;68.13;100606.22;5034494;28;20045;-65
2022/11/01 14:32:39;;;;;;;3.05;1.13;;;;;;;17.12;69.42;100607.88;5034299;28;20037;-65
2022/11/01 14:35:17;;;;;;;2.40;1.08;;;;;;;17.07;68.85;100603.09;5034570;28;20116;-65
2022/11/01 14:37:48;;;;;;;2.75;1.30;;;;;;;17.14;69.93;100611.19;5034467;28;20049;-65
2022/11/01 14:40:19;;;;;;;4.20;1.67;;;;;;;17.15;70.58;100599.38;5034325;28;20507;-63
2022/11/01 14:42:46;;;;;;;1.85;0.98;;;;;;;17.09;70.11;100595.69;5034426;28;20051;-65
2022/11/01 14:45:26;;;;;;;4.88;1.90;;;;;;;17.05;70.60;100607.88;5034374;28;20025;-65
2022/11/01 14:47:57;;;;;;;4.72;1.75;;;;;;;16.97;70.89;100608.09;5034483;28;20418;-65
2022/11/01 14:50:29;;;;;;;4.90;1.40;;;;;;;17.00;71.02;100604.97;5034063;28;20073;-65
2022/11/01 14:53:04;;;;;;;5.68;1.33;;;;;;;16.99;71.55;100604.16;5033885;28;20084;-65
2022/11/01 14:55:35;;;;;;;1.48;0.65;;;;;;;16.92;71.60;100603.31;5034098;28;20033;-65
2022/11/01 14:58:22;;;;;;;3.47;1.27;;;;;;;16.90;71.63;100605.41;5034231;28;20056;-65
2022/11/01 15:00:53;;;;;;;4.85;1.15;;;;;;;16.85;71.66;100607.03;5033702;28;20034;-65
2022/11/01 15:03:19;;;;;;;2.53;1.15;;;;;;;16.79;71.90;100616.75;5034151;28;20037;-64
2022/11/01 15:05:48;;;;;;;4.72;1.25;;;;;;;16.73;72.79;100602.25;5033879;28;20037;-65
2022/11/01 15:08:43;;;;;;;2.60;1.23;;;;;;;16.73;73.37;100609.50;5034013;28;20110;-64
2022/11/01 15:11:09;;;;;;;1.83;1.42;;;;;;;16.68;73.37;100620.00;5028844;28;20092;-64
2022/11/01 15:13:41;;;;;;;6.40;1.10;;;;;;;16.61;74.25;100620.00;5033870;28;20065;-65
2022/11/01 15:16:22;;;;;;;5.03;1.50;;;;;;;16.54;74.12;100606.53;5033799;28;20030;-65
2022/11/01 15:18:57;;;;;;;4.38;1.95;;;;;;;16.50;75.56;100607.16;5033801;28;20099;-64
2022/11/01 15:21:24;;;;;;;5.50;2.53;;;;;;;16.48;75.67;100614.59;5033594;28;20051;-65
2022/11/01 15:23:52;;;;;;;8.75;2.97;;;;;;;16.43;76.22;100612.53;5033747;28;20561;-65
2022/11/01 15:26:19;;;;;;;;;;;;;;;16.37;76.52;100613.34;5034046;28;20033;-52
2022/11/01 15:28:51;;;;;;;7.90;3.08;;;;;;;16.32;76.89;100623.03;5033619;28;20008;-52
2022/11/01 15:31:17;;;;;;;3.40;1.40;;;;;;;16.26;77.40;100627.34;5033230;28;20133;-50
2022/11/01 15:33:55;;;;;;;2.38;1.17;;;;;;;16.26;77.67;100621.97;5033492;28;20300;-52
2022/11/01 15:36:26;;;;;;;3.47;1.27;;;;;;;16.19;76.96;100621.13;5033129;28;20037;-55
2022/11/01 15:39:02;;;;;;;5.32;1.20;;;;;;;16.10;78.55;100628.50;5032015;28;20112;-57
2022/11/01 15:41:27;;;;;;;2.10;1.20;;;;;;;16.01;78.63;100630.53;5033054;28;20045;-58
2022/11/01 15:43:55;;;;;;;4.50;1.38;;;;;;;15.95;79.76;100631.34;5033244;28;20112;-55
2022/11/01 15:46:22;;;;;;;;;;;;;;;15.93;80.73;100624.53;5033682;28;20046;-56
2022/11/01 15:48:50;;;;;;;10.30;2.00;;;;;;;15.86;81.88;100629.03;5033067;28;19986;-56
2022/11/01 15:51:21;;;;;;;2.67;1.40;;;;;;;15.75;81.81;100622.34;5032751;28;20091;-65
2022/11/01 15:53:49;;;;;;;6.70;1.17;;;;;;;15.64;83.15;100630.94;5031731;28;20041;-66
2022/11/01 15:56:21;;;;;;;2.72;1.27;;;;;;;15.61;82.82;100628.63;5032911;28;20076;-66
2022/11/01 15:58:52;;;;;;;6.82;1.60;;;;;;;15.55;83.62;100629.41;5033159;28;20061;-66
2022/11/01 16:01:21;;;;;;;1.23;0.80;;;;;;;15.41;84.58;100634.69;5032646;28;20035;-66
2022/11/01 16:03:59;;;;;;;3.45;1.38;;;;;;;15.37;84.68;100640.66;5032963;28;20550;-67
2022/11/01 16:06:38;;;;;;;1.48;0.85;;;;;;;15.25;86.74;100637.66;5031896;28;20029;-66
2022/11/01 16:09:13;;;;;;;5.47;1.67;;;;;;;15.14;88.24;100635.53;5032797;28;20036;-67
2022/11/01 16:11:40;;;;;;;2.47;1.17;;;;;;;14.98;89.77;100639.28;5032237;28;20037;-66
2022/11/01 16:14:20;;;;;;;2.63;1.48;;;;;;;14.82;89.75;100637.69;5032581;28;20109;-67
2022/11/01 16:16:59;;;;;;;13.63;4.82;;;;;;;14.69;90.15;100639.41;5032427;28;20091;-67
2022/11/01 16:19:37;;;;;;;11.38;4.07;;;;;;;14.65;90.68;100633.59;5032640;28;20509;-67
2022/11/01 16:22:03;;;;;;;;;;;;;;;14.76;91.02;100641.16;5032503;28;20041;-67
2022/11/01 16:24:29;;;;;;;5.65;2.35;;;;;;;14.68;92.05;100643.13;5032539;28;19913;-66
2022/11/01 16:27:00;;;;;;;5.47;2.22;;;;;;;14.36;94.41;100654.09;5031191;28;20437;-67
2022/11/01 16:29:40;;;;;;;4.32;1.58;;;;;;;14.08;97.27;100653.09;5032437;28;20398;-67
2022/11/01 16:32:07;;;;;;;6.20;1.85;;;;;;;13.98;98.34;100652.56;5031968;28;20132;-67
2022/11/01 16:34:33;;;;;;;5.57;2.05;;;;;;;13.80;99.69;100658.28;5032230;28;20056;-67
2022/11/01 16:36:59;;;;;;;5.03;2.00;;;;;;;13.68;100.00;100665.91;5032108;28;20041;-67
2022/11/01 16:39:30;;;;;;;4.18;1.40;;;;;;;13.48;100.00;100662.13;5032210;28;20040;-67
2022/11/01 16:41:56;;;;;;;3.40;1.80;;;;;;;13.37;100.00;100668.75;5031810;28;20439;-67
2022/11/01 16:44:22;;;;;;;4.38;1.50;;;;;;;13.32;100.00;100670.31;5032123;28;20041;-67
2022/11/01 16:46:48;;;;;;;6.03;1.77;;;;;;;13.24;100.00;100677.41;5032127;28;20042;-67
2022/11/01 16:49:18;;;;;;;6.30;2.10;;;;;;;13.03;100.00;100672.66;5032101;28;20095;-67
2022/11/01 16:51:44;;;;;;;4.72;1.98;;;;;;;12.97;100.00;100680.56;5031590;28;20454;-67
2022/11/01 16:54:11;;;;;;;8.50;3.15;;;;;;;13.08;100.00;100679.31;5031941;28;20120;-67
2022/11/01 16:56:40;;;;;;;5.95;1.88;;;;;;;13.05;100.00;100688.53;5031941;28;20067;-67
2022/11/01 16:59:25;;;;;;;3.67;1.95;;;;;;;12.84;100.00;100683.81;5031880;28;20498;-67
2022/11/01 17:01:53;;;;;;;6.53;1.65;;;;;;;12.72;100.00;100691.44;5031583;28;20087;-67
2022/11/01 17:04:20;;;;;;;10.80;2.30;;;;;;;12.61;100.00;100693.69;5031840;28;20505;-66
2022/11/01 17:06:46;;;;;;;5.47;2.00;;;;;;;12.44;100.00;100696.41;5031746;28;20053;-67